Time;durP1;ratioP1;P1;durP2;ratioP2;P2;SDS_P1;SDS_P2;PMS_P1;PMS_P2;Temp;Humidity;BMP_temperature;BMP_pressure;BME280_temperature;BME280_humidity;BME280_pressure;Samples;Min_cycle;Max_cycle;Signal;HPM_P1;HPM_P2
2021/08/19 00:01:49;;;;;;;1.00;1.00;;;20.70;96.10;;;;;;5059261;28;20075;-80
2021/08/19 00:04:15;;;;;;;1.10;1.10;;;20.60;95.40;;;;;;5059797;28;20095;-82
2021/08/19 00:06:41;;;;;;;1.30;1.20;;;20.50;94.60;;;;;;5060272;28;20035;-81
2021/08/19 00:09:07;;;;;;;1.05;1.05;;;20.60;94.90;;;;;;5043040;28;20029;-82
2021/08/19 00:11:36;;;;;;;1.55;1.45;;;20.50;94.00;;;;;;5058799;28;20024;-82
2021/08/19 00:14:02;;;;;;;1.00;1.00;;;20.50;94.10;;;;;;5060465;28;20021;-81
2021/08/19 00:16:28;;;;;;;1.00;1.00;;;20.60;93.70;;;;;;5059374;28;20350;-80
2021/08/19 00:18:54;;;;;;;1.10;1.10;;;20.50;93.90;;;;;;5061241;28;20016;-81
2021/08/19 00:21:21;;;;;;;1.20;1.10;;;20.60;93.60;;;;;;5060018;28;20023;-79
2021/08/19 00:23:46;;;;;;;1.42;1.33;;;20.60;93.40;;;;;;5059223;28;20028;-77
2021/08/19 00:26:12;;;;;;;1.15;1.10;;;20.50;93.40;;;;;;5043546;28;20577;-80
2021/08/19 00:28:38;;;;;;;1.00;1.00;;;20.60;93.20;;;;;;5040821;28;20405;-78
2021/08/19 00:31:04;;;;;;;1.60;1.50;;;20.50;92.90;;;;;;5040431;28;20476;-80
2021/08/19 00:33:29;;;;;;;1.00;1.00;;;20.60;93.30;;;;;;5041518;28;20021;-81
2021/08/19 00:35:56;;;;;;;1.25;1.17;;;20.70;92.60;;;;;;5040024;28;20021;-79
2021/08/19 00:38:24;;;;;;;1.33;1.25;;;20.70;93.90;;;;;;5040523;28;20072;-80
2021/08/19 00:40:50;;;;;;;1.17;1.10;;;20.50;93.60;;;;;;5040992;28;20371;-77
2021/08/19 00:43:17;;;;;;;1.00;1.00;;;20.50;93.20;;;;;;5041080;28;20018;-80
2021/08/19 00:45:43;;;;;;;1.10;1.10;;;20.70;93.30;;;;;;5039562;28;20029;-79
2021/08/19 00:48:09;;;;;;;1.15;1.10;;;20.60;93.40;;;;;;5039115;28;20634;-77
2021/08/19 00:50:37;;;;;;;1.40;1.30;;;20.90;94.50;;;;;;5041571;28;20531;-78
2021/08/19 00:53:03;;;;;;;1.00;1.00;;;20.50;94.80;;;;;;5039999;28;20507;-79
2021/08/19 00:55:29;;;;;;;1.23;1.13;;;20.50;95.30;;;;;;5040014;28;20033;-80
2021/08/19 00:57:59;;;;;;;1.30;1.20;;;20.70;95.50;;;;;;5040848;28;20368;-80
2021/08/19 01:00:25;;;;;;;1.20;1.10;;;20.90;95.40;;;;;;5040886;28;20018;-81
2021/08/19 01:02:54;;;;;;;1.33;1.23;;;21.00;95.60;;;;;;5039067;28;20021;-79
2021/08/19 01:05:22;;;;;;;1.02;1.02;;;21.00;96.00;;;;;;5039628;28;20094;-83
2021/08/19 01:07:48;;;;;;;1.00;1.00;;;21.00;96.30;;;;;;5040329;28;20366;-80
2021/08/19 01:10:13;;;;;;;1.00;1.00;;;21.10;96.80;;;;;;5038359;28;20437;-85
2021/08/19 01:12:44;;;;;;;0.90;0.90;;;21.00;98.10;;;;;;5040050;28;20126;-83
2021/08/19 01:15:10;;;;;;;1.30;1.20;;;21.10;98.90;;;;;;5038794;28;20017;-83
2021/08/19 01:17:36;;;;;;;1.35;1.27;;;21.10;98.50;;;;;;5038928;28;20013;-82
2021/08/19 01:20:04;;;;;;;1.13;1.10;;;20.40;97.40;;;;;;5040609;28;20027;-85
2021/08/19 01:22:29;;;;;;;1.17;1.10;;;20.30;96.80;;;;;;5039355;28;20021;-92
2021/08/19 01:24:55;;;;;;;1.10;1.10;;;20.40;94.00;;;;;;5043269;28;20059;-90
2021/08/19 01:27:22;;;;;;;2.30;2.10;;;20.40;92.80;;;;;;5056565;28;20342;-86
2021/08/19 01:29:49;;;;;;;1.10;1.10;;;20.50;91.80;;;;;;5057444;28;20020;-90
2021/08/19 01:32:15;;;;;;;1.20;1.10;;;20.60;91.40;;;;;;5056154;28;20475;-87
2021/08/19 01:34:42;;;;;;;1.20;1.10;;;20.50;91.10;;;;;;5064168;28;20229;-88
2021/08/19 01:37:09;;;;;;;1.30;1.20;;;20.50;90.10;;;;;;5040293;28;20551;-86
2021/08/19 01:39:35;;;;;;;1.00;1.00;;;20.60;90.10;;;;;;5060190;28;20024;-85
2021/08/19 01:42:01;;;;;;;1.35;1.25;;;20.60;89.60;;;;;;5061351;28;20233;-86
2021/08/19 01:44:27;;;;;;;1.05;1.05;;;20.60;88.50;;;;;;5058204;28;20360;-84
2021/08/19 01:47:01;;;;;;;1.27;1.17;;;20.60;87.90;;;;;;5059284;28;20032;-82
2021/08/19 01:49:28;;;;;;;1.10;1.10;;;20.60;87.80;;;;;;5059897;28;20486;-86
2021/08/19 01:51:54;;;;;;;1.20;1.10;;;20.50;87.00;;;;;;5058929;28;20396;-83
2021/08/19 01:54:23;;;;;;;1.23;1.13;;;20.50;86.90;;;;;;5058362;28;20444;-84
2021/08/19 01:56:49;;;;;;;1.20;1.10;;;20.50;86.80;;;;;;5060035;28;20094;-80
2021/08/19 01:59:14;;;;;;;2.70;2.50;;;20.40;86.20;;;;;;5058581;28;20048;-81
2021/08/19 02:01:40;;;;;;;1.05;1.05;;;20.50;86.50;;;;;;5061454;28;20099;-83
2021/08/19 02:04:06;;;;;;;1.00;1.00;;;20.50;85.70;;;;;;5039306;28;20096;-79
2021/08/19 02:06:32;;;;;;;1.05;1.05;;;20.50;85.70;;;;;;5060191;28;20044;-86
2021/08/19 02:08:58;;;;;;;1.00;1.00;;;20.50;85.80;;;;;;5059259;28;20024;-83
2021/08/19 02:11:24;;;;;;;1.58;1.45;;;20.60;85.40;;;;;;5057482;28;20025;-86
2021/08/19 02:13:50;;;;;;;1.55;1.45;;;20.50;85.40;;;;;;5060290;28;20100;-86
2021/08/19 02:16:16;;;;;;;1.00;1.00;;;20.60;85.40;;;;;;5059375;28;20028;-81
2021/08/19 02:18:42;;;;;;;1.20;1.10;;;20.70;84.60;;;;;;5058976;28;20079;-85
2021/08/19 02:21:07;;;;;;;1.10;1.10;;;20.70;85.00;;;;;;5057541;28;20032;-78
2021/08/19 02:23:34;;;;;;;1.00;1.00;;;20.70;83.40;;;;;;5059168;28;20024;-76
2021/08/19 02:25:59;;;;;;;1.10;1.10;;;20.70;84.30;;;;;;5054251;28;20047;-83
2021/08/19 02:28:25;;;;;;;1.02;1.02;;;20.70;84.30;;;;;;5049382;28;20013;-82
2021/08/19 02:30:51;;;;;;;1.00;1.00;;;20.60;84.40;;;;;;5050076;28;20017;-81
2021/08/19 02:33:17;;;;;;;1.25;1.17;;;20.70;84.40;;;;;;5049802;28;20469;-80
2021/08/19 02:35:42;;;;;;;1.00;1.00;;;20.70;83.90;;;;;;5049621;28;20159;-83
2021/08/19 02:38:08;;;;;;;1.00;1.00;;;20.90;84.10;;;;;;5049840;28;20100;-81
2021/08/19 02:40:40;;;;;;;1.10;1.10;;;20.80;83.70;;;;;;5050201;28;20371;-82
2021/08/19 02:43:09;;;;;;;1.00;1.00;;;20.90;83.90;;;;;;5049637;28;20024;-84
2021/08/19 02:45:35;;;;;;;1.38;1.27;;;20.80;83.80;;;;;;5050426;28;20115;-82
2021/08/19 02:48:01;;;;;;;1.00;1.00;;;20.70;84.00;;;;;;5053414;28;20044;-78
2021/08/19 02:50:28;;;;;;;1.40;1.30;;;20.80;86.40;;;;;;5053784;28;20373;-82
2021/08/19 02:52:55;;;;;;;1.30;1.20;;;20.80;94.10;;;;;;5053223;28;20035;-79
2021/08/19 02:55:21;;;;;;;1.00;1.00;;;20.90;95.60;;;;;;5053656;28;20606;-82
2021/08/19 02:57:46;;;;;;;1.20;1.10;;;20.80;97.60;;;;;;5053228;28;20025;-80
2021/08/19 03:00:12;;;;;;;1.00;1.00;;;20.90;98.60;;;;;;5053714;28;20024;-85
2021/08/19 03:02:38;;;;;;;2.13;1.98;;;20.80;99.60;;;;;;5053255;28;20021;-85
2021/08/19 03:05:05;;;;;;;1.00;1.00;;;20.80;99.90;;;;;;5067866;28;20107;-85
2021/08/19 03:07:31;;;;;;;1.00;1.00;;;20.80;99.90;;;;;;5073234;28;20036;-84
2021/08/19 03:09:57;;;;;;;1.05;1.05;;;20.70;99.90;;;;;;5073549;28;20021;-83
2021/08/19 03:12:23;;;;;;;1.08;1.08;;;20.70;99.90;;;;;;5072782;28;20349;-85
2021/08/19 03:14:48;;;;;;;1.00;1.00;;;20.70;99.90;;;;;;5072961;28;20024;-78
2021/08/19 03:17:14;;;;;;;1.00;1.00;;;20.60;99.90;;;;;;5073015;28;20029;-79
2021/08/19 03:19:40;;;;;;;1.58;1.48;;;20.50;99.90;;;;;;5072464;28;20456;-80
2021/08/19 03:22:07;;;;;;;1.00;1.00;;;20.70;99.90;;;;;;5072865;28;20021;-82
2021/08/19 03:24:35;;;;;;;1.73;1.60;;;20.60;99.90;;;;;;5072895;28;20055;-83
2021/08/19 03:27:01;;;;;;;0.90;0.90;;;20.70;99.90;;;;;;5072242;28;20078;-78
2021/08/19 03:29:26;;;;;;;1.75;1.65;;;20.60;99.90;;;;;;5072717;28;20044;-82
2021/08/19 03:31:52;;;;;;;1.15;1.10;;;20.70;99.90;;;;;;5072882;28;20025;-79
2021/08/19 03:34:18;;;;;;;1.10;1.10;;;20.60;99.90;;;;;;5072512;28;20016;-80
2021/08/19 03:36:44;;;;;;;1.00;1.00;;;20.60;99.90;;;;;;5072420;28;20052;-78
2021/08/19 03:39:10;;;;;;;1.02;1.02;;;20.50;99.90;;;;;;5072495;28;20024;-79
2021/08/19 03:41:36;;;;;;;1.00;1.00;;;20.60;99.90;;;;;;5072900;28;20043;-80
2021/08/19 03:44:01;;;;;;;2.13;2.03;;;20.70;99.90;;;;;;5071994;28;20104;-79
2021/08/19 03:46:27;;;;;;;1.20;1.10;;;20.70;99.90;;;;;;5072603;28;20040;-79
2021/08/19 03:48:53;;;;;;;1.00;1.00;;;20.60;99.90;;;;;;5071952;28;20016;-81
2021/08/19 03:51:19;;;;;;;1.00;1.00;;;20.50;99.90;;;;;;5072248;28;20028;-87
2021/08/19 03:53:49;;;;;;;1.00;1.00;;;20.50;99.90;;;;;;5072645;28;20033;-85
2021/08/19 03:56:14;;;;;;;0.95;0.95;;;20.50;99.90;;;;;;5072181;28;20096;-88
2021/08/19 03:58:40;;;;;;;1.35;1.25;;;20.50;99.90;;;;;;5072113;28;20119;-81
2021/08/19 04:01:06;;;;;;;1.00;1.00;;;20.40;99.90;;;;;;5072672;28;20027;-82
2021/08/19 04:03:32;;;;;;;1.30;1.20;;;20.30;99.90;;;;;;5070955;28;20055;-78
2021/08/19 04:05:57;;;;;;;2.13;1.98;;;20.30;99.90;;;;;;5051695;28;20044;-81
2021/08/19 04:08:23;;;;;;;1.10;1.05;;;20.30;99.90;;;;;;5051907;28;20055;-82
2021/08/19 04:10:49;;;;;;;1.00;1.00;;;20.30;99.90;;;;;;5051351;28;20072;-82
2021/08/19 04:13:15;;;;;;;1.20;1.10;;;20.40;99.90;;;;;;5051515;28;20025;-82
2021/08/19 04:15:40;;;;;;;2.08;1.90;;;20.40;99.90;;;;;;5052041;28;20299;-80
2021/08/19 04:18:06;;;;;;;1.00;1.00;;;20.30;99.20;;;;;;5051714;28;20420;-83
2021/08/19 04:20:33;;;;;;;1.50;1.42;;;20.40;99.90;;;;;;5051958;28;20396;-82
2021/08/19 04:22:59;;;;;;;1.02;1.02;;;20.50;99.90;;;;;;5052343;28;20021;-90
2021/08/19 04:25:24;;;;;;;1.40;1.30;;;20.40;99.90;;;;;;5053607;28;20049;-83
2021/08/19 04:27:50;;;;;;;1.20;1.10;;;20.40;99.90;;;;;;5051680;28;20037;-84
2021/08/19 04:30:16;;;;;;;3.83;2.55;;;20.40;99.90;;;;;;5051399;28;20040;-85
2021/08/19 04:32:42;;;;;;;3.28;2.60;;;20.50;99.90;;;;;;5051722;28;20087;-84
2021/08/19 04:35:08;;;;;;;3.55;2.65;;;20.60;99.90;;;;;;5051643;28;20025;-85
2021/08/19 04:37:35;;;;;;;1.00;1.00;;;20.20;99.90;;;;;;5051938;28;20035;-82
2021/08/19 04:40:02;;;;;;;1.60;1.50;;;20.40;99.90;;;;;;5051744;28;20063;-87
2021/08/19 04:42:28;;;;;;;1.20;1.10;;;20.20;97.50;;;;;;5051725;28;20039;-82
2021/08/19 04:44:53;;;;;;;1.02;1.02;;;20.40;98.80;;;;;;5034304;28;20075;-83
2021/08/19 04:47:19;;;;;;;1.00;1.00;;;20.40;97.50;;;;;;5051638;28;20024;-86
2021/08/19 04:49:45;;;;;;;1.58;1.48;;;20.60;97.40;;;;;;5053202;28;20059;-91
2021/08/19 04:52:10;;;;;;;1.00;1.00;;;20.80;99.20;;;;;;5055834;28;20021;-88
2021/08/19 04:54:36;;;;;;;0.93;0.93;;;20.50;92.80;;;;;;5057240;28;20044;-91
2021/08/19 04:57:02;;;;;;;0.90;0.90;;;20.40;92.70;;;;;;5055118;28;20060;-79
2021/08/19 04:59:28;;;;;;;1.00;1.00;;;20.20;91.40;;;;;;5055062;28;20372;-90
2021/08/19 05:01:53;;;;;;;1.70;1.60;;;20.40;90.80;;;;;;5053818;28;20029;-91
2021/08/19 05:04:19;;;;;;;1.30;1.20;;;20.50;90.60;;;;;;5057779;28;20456;-82
2021/08/19 05:06:45;;;;;;;1.00;1.00;;;20.40;90.70;;;;;;5073065;28;20017;-88
2021/08/19 05:09:11;;;;;;;2.35;2.25;;;20.40;89.30;;;;;;5072372;28;20020;-79
2021/08/19 05:11:37;;;;;;;1.10;1.10;;;20.60;90.00;;;;;;5069556;28;20096;-87
2021/08/19 05:14:03;;;;;;;1.58;1.48;;;20.40;89.50;;;;;;5066626;28;20099;-87
2021/08/19 05:16:31;;;;;;;1.10;1.05;;;20.40;89.10;;;;;;5065568;28;20433;-89
2021/08/19 05:18:57;;;;;;;1.20;1.10;;;20.60;88.30;;;;;;5061672;28;20033;-77
2021/08/19 05:21:23;;;;;;;0.90;0.90;;;20.50;89.60;;;;;;5062733;28;20021;-80
2021/08/19 05:23:49;;;;;;;1.25;1.15;;;20.50;88.40;;;;;;5057193;28;20021;-88
2021/08/19 05:26:16;;;;;;;1.10;1.10;;;20.40;88.00;;;;;;5062520;28;20123;-83
2021/08/19 05:28:42;;;;;;;1.00;1.00;;;20.40;88.70;;;;;;5059911;28;20012;-78
2021/08/19 05:31:08;;;;;;;1.00;1.00;;;20.50;87.90;;;;;;5058468;28;20059;-85
2021/08/19 05:33:35;;;;;;;3.05;2.75;;;20.60;88.30;;;;;;5063616;28;20040;-91
2021/08/19 05:36:01;;;;;;;0.90;0.90;;;20.70;87.10;;;;;;5066337;28;20029;-80
2021/08/19 05:38:27;;;;;;;1.25;1.17;;;20.70;87.40;;;;;;5071011;28;20020;-87
2021/08/19 05:40:53;;;;;;;1.30;1.20;;;20.70;87.30;;;;;;5070522;28;20468;-79
2021/08/19 05:43:21;;;;;;;1.00;1.00;;;20.70;86.60;;;;;;5070674;28;20016;-79
2021/08/19 05:45:46;;;;;;;1.00;1.00;;;20.80;87.70;;;;;;5070842;28;20055;-80
2021/08/19 05:48:12;;;;;;;3.08;1.92;;;20.80;86.60;;;;;;5072187;28;20112;-84
2021/08/19 05:50:38;;;;;;;1.00;1.00;;;20.90;87.10;;;;;;5071514;28;20028;-83
2021/08/19 05:53:07;;;;;;;1.40;1.30;;;21.00;85.50;;;;;;5072119;28;20047;-86
2021/08/19 05:55:32;;;;;;;1.00;1.00;;;20.90;84.70;;;;;;5071288;28;20091;-81
2021/08/19 05:57:59;;;;;;;1.10;1.10;;;21.10;84.80;;;;;;5070610;28;20056;-79
2021/08/19 06:00:25;;;;;;;1.55;1.45;;;21.20;85.50;;;;;;5051881;28;20460;-80
2021/08/19 06:02:52;;;;;;;0.90;0.90;;;21.30;84.30;;;;;;5070245;28;20028;-79
2021/08/19 06:05:18;;;;;;;0.90;0.90;;;21.40;85.10;;;;;;5058068;28;20021;-77
2021/08/19 06:07:45;;;;;;;2.40;1.83;;;21.40;83.00;;;;;;5051060;28;20029;-80
2021/08/19 06:10:12;;;;;;;0.90;0.90;;;21.20;83.70;;;;;;5050182;28;20055;-79
2021/08/19 06:12:38;;;;;;;1.30;1.20;;;21.40;82.70;;;;;;5050041;28;20017;-79
2021/08/19 06:15:05;;;;;;;1.42;1.33;;;21.40;82.40;;;;;;5050526;28;20031;-78
2021/08/19 06:17:33;;;;;;;0.90;0.90;;;21.50;82.40;;;;;;5032484;28;20103;-81
2021/08/19 06:19:59;;;;;;;0.90;0.90;;;21.40;82.50;;;;;;5051799;28;20345;-83
2021/08/19 06:22:25;;;;;;;1.00;1.00;;;21.40;81.10;;;;;;5054576;28;20021;-81
2021/08/19 06:24:51;;;;;;;0.95;0.95;;;21.30;82.20;;;;;;5036542;28;20396;-79
2021/08/19 06:27:17;;;;;;;0.90;0.90;;;21.30;82.40;;;;;;5055615;28;20487;-79
2021/08/19 06:29:42;;;;;;;0.93;0.93;;;21.20;81.50;;;;;;5055714;28;20017;-80
2021/08/19 06:32:08;;;;;;;0.90;0.90;;;21.50;80.90;;;;;;5055204;28;20380;-78
2021/08/19 06:34:35;;;;;;;1.00;1.00;;;21.60;80.20;;;;;;5055569;28;20029;-81
2021/08/19 06:37:01;;;;;;;0.93;0.93;;;21.80;79.30;;;;;;5038335;28;20464;-92
2021/08/19 06:39:27;;;;;;;0.90;0.90;;;22.00;80.10;;;;;;5057227;28;20032;-87
2021/08/19 06:41:53;;;;;;;0.80;0.80;;;21.80;79.10;;;;;;5056159;28;20029;-84
2021/08/19 06:44:18;;;;;;;1.10;1.05;;;21.80;78.90;;;;;;5055621;28;20028;-79
2021/08/19 06:46:44;;;;;;;0.90;0.90;;;21.90;79.00;;;;;;5055012;28;20075;-81
2021/08/19 06:49:10;;;;;;;0.90;0.90;;;22.00;79.20;;;;;;5054053;28;20028;-78
2021/08/19 06:51:36;;;;;;;0.70;0.70;;;22.20;79.60;;;;;;5053968;28;20044;-77
2021/08/19 06:54:02;;;;;;;0.90;0.90;;;22.70;78.80;;;;;;5053765;28;20037;-77
2021/08/19 06:56:28;;;;;;;5.18;1.65;;;22.60;78.50;;;;;;5054453;28;20128;-82
2021/08/19 06:58:54;;;;;;;0.80;0.80;;;22.90;78.50;;;;;;5055191;28;20017;-81
2021/08/19 07:01:19;;;;;;;0.90;0.90;;;23.00;77.10;;;;;;5055180;28;20016;-80
2021/08/19 07:03:45;;;;;;;0.70;0.70;;;23.20;77.90;;;;;;5055709;28;20041;-78
2021/08/19 07:06:17;;;;;;;2.25;1.10;;;23.40;76.60;;;;;;5056780;28;20063;-79
2021/08/19 07:08:43;;;;;;;0.70;0.70;;;23.30;76.40;;;;;;5054566;28;20080;-79
2021/08/19 07:11:11;;;;;;;1.33;1.23;;;23.20;76.80;;;;;;5054690;28;20017;-77
2021/08/19 07:13:36;;;;;;;0.60;0.60;;;23.40;76.80;;;;;;5054284;28;20487;-76
2021/08/19 07:16:02;;;;;;;0.70;0.70;;;23.60;75.30;;;;;;5053682;28;20072;-78
2021/08/19 07:18:28;;;;;;;0.70;0.70;;;23.50;74.70;;;;;;5053353;28;20025;-77
2021/08/19 07:20:54;;;;;;;1.40;1.30;;;23.60;74.50;;;;;;5053109;28;20711;-75
2021/08/19 07:23:20;;;;;;;0.98;0.98;;;23.60;73.90;;;;;;5053395;28;20394;-83
2021/08/19 07:25:45;;;;;;;0.60;0.60;;;23.70;74.10;;;;;;5053703;28;20138;-82
2021/08/19 07:28:12;;;;;;;1.05;1.05;;;23.80;74.50;;;;;;5035035;28;20500;-85
2021/08/19 07:30:39;;;;;;;0.60;0.60;;;23.80;73.50;;;;;;5055467;28;20032;-85
2021/08/19 07:33:05;;;;;;;0.68;0.68;;;23.80;72.90;;;;;;5052825;28;20452;-84
2021/08/19 07:35:31;;;;;;;0.70;0.70;;;23.70;72.90;;;;;;5052737;28;20028;-82
2021/08/19 07:37:57;;;;;;;0.70;0.70;;;23.70;72.80;;;;;;5053149;28;20020;-80
2021/08/19 07:40:26;;;;;;;0.93;0.93;;;23.50;72.70;;;;;;5053701;28;20437;-79
2021/08/19 07:42:52;;;;;;;0.80;0.80;;;23.50;73.30;;;;;;5052850;28;20037;-84
2021/08/19 07:45:19;;;;;;;1.40;1.27;;;23.00;73.80;;;;;;5052913;28;20372;-82
2021/08/19 07:47:45;;;;;;;0.90;0.90;;;22.80;74.00;;;;;;5053806;28;20017;-82
2021/08/19 07:50:12;;;;;;;0.70;0.70;;;22.70;72.60;;;;;;5053318;28;20035;-79
2021/08/19 07:52:39;;;;;;;0.80;0.80;;;22.70;72.20;;;;;;5052867;28;20017;-79
2021/08/19 07:55:06;;;;;;;0.68;0.68;;;23.00;72.80;;;;;;5035426;28;20476;-86
2021/08/19 07:57:50;;;;;;;0.60;0.60;;;23.30;72.50;;;;;;5052221;28;20099;-79
2021/08/19 08:00:32;;;;;;;0.70;0.70;;;23.20;70.70;;;;;;5034539;28;20013;-78
2021/08/19 08:02:59;;;;;;;0.77;0.77;;;23.30;68.70;;;;;;5052536;28;20597;-79
2021/08/19 08:05:28;;;;;;;0.77;0.75;;;23.40;69.60;;;;;;5062713;28;20023;-87
2021/08/19 08:07:59;;;;;;;0.60;0.60;;;23.50;68.00;;;;;;5071971;28;20017;-82
2021/08/19 08:10:26;;;;;;;0.80;0.80;;;23.80;66.70;;;;;;5072686;28;20055;-79
2021/08/19 08:12:51;;;;;;;0.70;0.70;;;24.00;65.70;;;;;;5071845;28;20471;-79
2021/08/19 08:15:17;;;;;;;0.60;0.60;;;24.30;65.80;;;;;;5072099;28;20028;-80
2021/08/19 08:17:43;;;;;;;0.70;0.70;;;24.70;65.50;;;;;;5071769;28;20395;-80
2021/08/19 08:20:11;;;;;;;0.60;0.60;;;24.00;65.10;;;;;;5072699;28;20036;-79
2021/08/19 08:22:40;;;;;;;0.77;0.77;;;24.10;66.30;;;;;;5073157;28;20095;-79
2021/08/19 08:25:06;;;;;;;0.60;0.60;;;23.80;67.30;;;;;;5072215;28;20094;-78
2021/08/19 08:27:32;;;;;;;0.80;0.80;;;24.00;66.10;;;;;;5071918;28;20031;-79
2021/08/19 08:29:58;;;;;;;0.60;0.60;;;24.20;65.80;;;;;;5072372;28;20016;-79
2021/08/19 08:32:24;;;;;;;0.60;0.60;;;24.10;67.10;;;;;;5072159;28;20098;-83
2021/08/19 08:34:49;;;;;;;0.70;0.70;;;24.30;66.40;;;;;;5072549;28;20017;-84
2021/08/19 08:37:15;;;;;;;0.60;0.60;;;24.20;64.30;;;;;;5072759;28;20021;-84
2021/08/19 08:39:41;;;;;;;1.05;1.00;;;24.30;65.00;;;;;;5073012;28;20016;-84
2021/08/19 08:42:11;;;;;;;0.60;0.60;;;24.20;64.80;;;;;;5071929;28;20495;-81
2021/08/19 08:44:38;;;;;;;0.75;0.75;;;24.30;64.90;;;;;;5070657;28;20031;-82
2021/08/19 08:47:04;;;;;;;0.60;0.60;;;24.30;65.00;;;;;;5071396;28;20016;-79
2021/08/19 08:49:31;;;;;;;0.60;0.60;;;24.70;65.80;;;;;;5071567;28;20107;-83
2021/08/19 08:52:00;;;;;;;0.60;0.60;;;25.00;65.20;;;;;;5071796;28;20016;-79
2021/08/19 08:54:29;;;;;;;0.70;0.65;;;25.30;64.60;;;;;;5071799;28;20524;-78
2021/08/19 08:56:59;;;;;;;0.50;0.50;;;25.50;63.90;;;;;;5072186;28;20036;-87
2021/08/19 08:59:25;;;;;;;;;;;25.20;63.30;;;;;;5073122;28;20372;-84
2021/08/19 09:01:54;;;;;;;0.50;0.50;;;25.50;63.10;;;;;;5072619;28;19911;-91
2021/08/19 09:04:20;;;;;;;0.75;0.75;;;25.80;63.00;;;;;;5071805;28;20013;-85
2021/08/19 09:06:46;;;;;;;0.68;0.68;;;25.50;61.80;;;;;;5062812;28;20036;-87
2021/08/19 09:09:22;;;;;;;0.70;0.70;;;25.60;61.90;;;;;;5065979;28;20029;-93
2021/08/19 09:11:56;;;;;;;0.50;0.50;;;25.60;62.50;;;;;;5062050;28;20028;-89
2021/08/19 09:14:35;;;;;;;0.50;0.50;;;25.20;62.20;;;;;;5061116;28;20020;-89
2021/08/19 09:17:01;;;;;;;0.77;0.77;;;26.00;62.20;;;;;;5060338;28;20029;-83
2021/08/19 09:19:35;;;;;;;0.50;0.50;;;25.90;62.00;;;;;;5062037;28;20074;-87
2021/08/19 09:22:04;;;;;;;0.55;0.55;;;26.30;60.90;;;;;;5051660;28;20029;-87
2021/08/19 09:24:32;;;;;;;0.40;0.40;;;26.20;60.20;;;;;;5051389;28;20075;-90
2021/08/19 09:27:17;;;;;;;0.50;0.50;;;25.90;60.50;;;;;;5051169;28;20036;-84
2021/08/19 09:29:46;;;;;;;0.60;0.60;;;26.40;61.70;;;;;;5052097;28;20016;-80
2021/08/19 09:32:17;;;;;;;0.50;0.50;;;26.90;59.80;;;;;;5051176;28;20017;-78
2021/08/19 09:34:48;;;;;;;0.50;0.50;;;26.90;59.70;;;;;;5051167;28;20392;-77
2021/08/19 09:37:19;;;;;;;0.50;0.50;;;27.40;59.40;;;;;;5052268;28;20040;-80
2021/08/19 09:39:48;;;;;;;1.02;0.93;;;27.60;58.90;;;;;;5043417;28;20036;-79
2021/08/19 09:42:14;;;;;;;1.13;1.02;;;27.70;59.00;;;;;;5057038;28;20783;-80
2021/08/19 09:44:47;;;;;;;0.40;0.40;;;28.00;59.30;;;;;;5061026;28;20028;-78
2021/08/19 09:47:39;;;;;;;0.40;0.40;;;28.10;58.40;;;;;;5059241;28;20017;-82
2021/08/19 09:50:18;;;;;;;0.30;0.30;;;28.30;59.00;;;;;;5055469;28;20028;-78
2021/08/19 09:52:49;;;;;;;0.52;0.52;;;28.40;57.00;;;;;;5058665;28;20023;-81
2021/08/19 09:55:29;;;;;;;0.40;0.40;;;28.30;57.30;;;;;;5058566;28;20037;-77
2021/08/19 09:57:57;;;;;;;0.65;0.65;;;28.50;57.50;;;;;;5061943;28;20364;-78
2021/08/19 10:00:32;;;;;;;0.30;0.30;;;28.60;57.30;;;;;;5067595;28;20411;-82
2021/08/19 10:02:59;;;;;;;0.95;0.88;;;28.70;57.20;;;;;;5075998;28;20033;-85
2021/08/19 10:05:25;;;;;;;0.45;0.45;;;28.30;56.30;;;;;;5066007;28;20013;-80
2021/08/19 10:07:52;;;;;;;0.30;0.30;;;28.20;57.10;;;;;;5050565;28;20072;-81
2021/08/19 10:10:18;;;;;;;0.45;0.45;;;27.30;56.50;;;;;;5051603;28;20025;-79
2021/08/19 10:12:45;;;;;;;0.77;0.75;;;27.30;58.50;;;;;;5052326;28;20095;-82
2021/08/19 10:15:13;;;;;;;0.40;0.40;;;27.80;58.80;;;;;;5051703;28;20024;-82
2021/08/19 10:17:45;;;;;;;0.30;0.30;;;28.00;56.80;;;;;;5050875;28;20045;-87
2021/08/19 10:20:15;;;;;;;0.43;0.40;;;28.30;56.30;;;;;;5050400;28;20016;-77
2021/08/19 10:22:42;;;;;;;0.82;0.50;;;28.40;55.70;;;;;;5051355;28;20099;-84
2021/08/19 10:25:09;;;;;;;0.30;0.30;;;28.10;55.30;;;;;;5050165;28;20053;-80
2021/08/19 10:27:34;;;;;;;0.30;0.30;;;28.30;55.40;;;;;;5049903;28;20112;-84
2021/08/19 10:30:04;;;;;;;0.52;0.50;;;28.40;55.30;;;;;;5050178;28;20100;-77
2021/08/19 10:32:33;;;;;;;0.65;0.65;;;28.80;55.80;;;;;;5049886;28;20439;-81
2021/08/19 10:34:58;;;;;;;1.20;0.65;;;29.20;56.30;;;;;;5049926;28;20342;-77
2021/08/19 10:37:49;;;;;;;1.98;1.00;;;29.30;55.60;;;;;;5031667;28;20487;-79
2021/08/19 10:40:24;;;;;;;0.30;0.30;;;29.30;55.70;;;;;;5049960;28;20024;-78
2021/08/19 10:43:17;;;;;;;0.50;0.50;;;29.30;54.70;;;;;;5049055;28;20476;-79
2021/08/19 10:45:43;;;;;;;0.38;0.38;;;29.00;53.90;;;;;;5051372;28;20408;-77
2021/08/19 10:48:09;;;;;;;0.30;0.30;;;29.10;55.00;;;;;;5051163;28;20119;-78
2021/08/19 10:50:39;;;;;;;0.20;0.20;;;29.00;55.20;;;;;;5050694;28;20029;-79
2021/08/19 10:53:17;;;;;;;0.57;0.40;;;29.20;55.00;;;;;;5069607;28;20024;-79
2021/08/19 10:55:44;;;;;;;0.30;0.30;;;29.50;55.70;;;;;;5069657;28;20376;-75
2021/08/19 10:58:33;;;;;;;0.52;0.50;;;29.60;54.40;;;;;;5069538;28;20407;-77
2021/08/19 11:01:12;;;;;;;0.20;0.20;;;29.70;54.70;;;;;;5069665;28;20016;-78
2021/08/19 11:03:38;;;;;;;0.60;0.45;;;29.30;54.80;;;;;;5069441;28;20017;-78
2021/08/19 11:06:10;;;;;;;0.28;0.28;;;29.60;54.80;;;;;;5058766;28;20095;-79
2021/08/19 11:08:47;;;;;;;0.47;0.47;;;29.80;54.20;;;;;;5053181;28;20021;-80
2021/08/19 11:11:28;;;;;;;0.32;0.32;;;29.90;55.60;;;;;;5052797;28;20036;-82
2021/08/19 11:14:12;;;;;;;0.28;0.28;;;30.20;54.80;;;;;;5052836;28;20096;-79
2021/08/19 11:16:41;;;;;;;0.68;0.57;;;30.50;54.50;;;;;;5052634;28;20029;-77
2021/08/19 11:19:15;;;;;;;0.30;0.30;;;30.30;53.50;;;;;;5052758;28;20048;-77
2021/08/19 11:22:02;;;;;;;0.68;0.65;;;30.10;54.40;;;;;;5052831;28;20025;-77
2021/08/19 11:24:30;;;;;;;0.20;0.20;;;30.20;54.80;;;;;;5051548;28;20048;-79
2021/08/19 11:27:07;;;;;;;0.88;0.88;;;30.40;53.90;;;;;;5052467;28;20108;-80
2021/08/19 11:29:38;;;;;;;0.30;0.30;;;30.50;54.30;;;;;;5052725;28;20029;-77
2021/08/19 11:32:16;;;;;;;0.30;0.30;;;30.80;55.00;;;;;;5052512;28;20017;-79
2021/08/19 11:34:50;;;;;;;0.30;0.30;;;30.60;53.50;;;;;;5036585;28;20107;-81
2021/08/19 11:37:34;;;;;;;0.60;0.50;;;30.80;54.30;;;;;;5052627;28;20033;-78
2021/08/19 11:40:00;;;;;;;0.30;0.30;;;30.90;53.20;;;;;;5052711;28;20041;-76
2021/08/19 11:42:31;;;;;;;2.08;1.55;;;30.80;52.40;;;;;;5034593;28;20469;-78
2021/08/19 11:45:20;;;;;;;0.25;0.25;;;30.80;52.40;;;;;;5052195;28;20012;-82
2021/08/19 11:47:46;;;;;;;0.90;0.57;;;31.00;53.00;;;;;;5034546;28;20023;-84
2021/08/19 11:50:12;;;;;;;0.20;0.20;;;31.20;53.50;;;;;;5052346;28;20051;-78
2021/08/19 11:52:38;;;;;;;0.20;0.20;;;31.00;52.10;;;;;;5052704;28;20108;-78
2021/08/19 11:55:04;;;;;;;0.40;0.40;;;30.80;52.80;;;;;;5052268;28;20215;-80
2021/08/19 11:57:30;;;;;;;0.50;0.50;;;30.60;52.50;;;;;;5052167;28;20134;-83
2021/08/19 12:00:00;;;;;;;1.05;0.63;;;30.50;52.60;;;;;;5052556;28;20750;-84
2021/08/19 12:02:27;;;;;;;0.63;0.57;;;30.40;52.20;;;;;;5052355;28;20084;-81
2021/08/19 12:05:04;;;;;;;1.17;0.73;;;30.30;52.10;;;;;;5051731;28;20017;-83
2021/08/19 12:07:30;;;;;;;1.55;0.63;;;30.60;52.90;;;;;;5052365;28;20055;-82
2021/08/19 12:09:56;;;;;;;0.73;0.45;;;30.50;52.50;;;;;;5051967;28;20096;-80
2021/08/19 12:12:25;;;;;;;0.65;0.65;;;30.40;55.00;;;;;;5051807;28;20040;-80
2021/08/19 12:14:52;;;;;;;0.45;0.43;;;30.70;54.10;;;;;;5038276;28;20561;-77
2021/08/19 12:17:18;;;;;;;0.57;0.57;;;31.10;52.50;;;;;;5061919;28;20043;-79
2021/08/19 12:19:44;;;;;;;0.80;0.25;;;31.50;54.70;;;;;;5041680;28;20459;-80
2021/08/19 12:22:12;;;;;;;0.52;0.52;;;31.60;53.00;;;;;;5059489;28;20091;-81
2021/08/19 12:24:42;;;;;;;0.45;0.45;;;31.10;52.90;;;;;;5059212;28;20029;-82
2021/08/19 12:27:15;;;;;;;0.22;0.22;;;31.10;54.20;;;;;;5060273;28;20032;-80
2021/08/19 12:29:50;;;;;;;0.20;0.20;;;31.90;54.50;;;;;;5059648;28;20016;-81
2021/08/19 12:32:37;;;;;;;0.30;0.30;;;32.20;52.70;;;;;;5058896;28;20052;-78
2021/08/19 12:35:02;;;;;;;0.73;0.60;;;32.30;52.10;;;;;;5060793;28;20407;-80
2021/08/19 12:37:30;;;;;;;0.20;0.20;;;32.70;52.10;;;;;;5061614;28;20518;-81
2021/08/19 12:39:57;;;;;;;0.57;0.57;;;32.90;52.90;;;;;;5051271;28;20495;-82
2021/08/19 12:42:34;;;;;;;0.30;0.30;;;32.60;51.90;;;;;;5061713;28;20037;-85
2021/08/19 12:45:09;;;;;;;0.52;0.35;;;32.50;52.80;;;;;;5055713;28;20072;-83
2021/08/19 12:47:36;;;;;;;0.30;0.30;;;32.70;50.80;;;;;;5051149;28;20040;-80
2021/08/19 12:50:02;;;;;;;0.30;0.30;;;32.50;50.80;;;;;;5040887;28;20052;-80
2021/08/19 12:52:28;;;;;;;0.30;0.30;;;32.40;51.00;;;;;;5058626;28;20028;-79